createdAt,value
2018-01-25T00:05:36.767Z,84.95
2018-01-25T00:06:13.584Z,85.33
2018-01-25T00:07:13.829Z,85.61
2018-01-25T00:08:13.825Z,85.61
2018-01-25T00:09:13.816Z,85.33
2018-01-25T00:10:14.191Z,85.42
2018-01-25T00:11:13.870Z,84.95
2018-01-25T00:12:13.809Z,85.04
2018-01-25T00:13:13.556Z,84.95
2018-01-25T00:14:13.611Z,84.76
2018-01-25T00:15:14.423Z,84.47
2018-01-25T00:16:13.531Z,84.47
2018-01-25T00:17:13.776Z,84.28
2018-01-25T00:18:13.771Z,84.56
2018-01-25T00:19:13.773Z,85.14
2018-01-25T00:20:14.587Z,84.56
2018-01-25T00:21:15.114Z,84.19
2018-01-25T00:22:13.500Z,84.28
2018-01-25T00:23:13.755Z,83.81
2018-01-25T00:24:13.490Z,84
2018-01-25T00:25:14.869Z,84
2018-01-25T00:26:13.733Z,83.81
2018-01-25T00:27:13.728Z,84
2018-01-25T00:28:13.732Z,83.9
2018-01-25T00:29:13.467Z,84.19
2018-01-25T00:30:15.138Z,83.9
2018-01-25T00:31:13.702Z,84
2018-01-25T00:32:13.448Z,83.81
2018-01-25T00:33:13.695Z,83.62
2018-01-25T00:34:13.689Z,84.28
2018-01-25T00:35:15.495Z,84.38
2018-01-25T00:36:13.683Z,84.19
2018-01-25T00:37:13.674Z,84
2018-01-25T00:38:13.420Z,84.85
2018-01-25T00:39:13.664Z,84.85
2018-01-25T00:40:15.081Z,85.04
2018-01-25T00:41:13.665Z,85.52
2018-01-25T00:42:13.660Z,85.71
2018-01-25T00:43:13.644Z,85.14
2018-01-25T00:44:13.636Z,84.66
2018-01-25T00:45:15.262Z,84.66
2018-01-25T00:46:13.373Z,83.9
2018-01-25T00:47:13.369Z,84.19
2018-01-25T00:48:13.364Z,84.09
2018-01-25T00:49:13.362Z,84.09
2018-01-25T00:50:15.176Z,83.81
2018-01-25T00:51:13.364Z,84
2018-01-25T00:52:13.599Z,84.56
2018-01-25T00:53:13.338Z,84.19
2018-01-25T00:54:13.594Z,84.09
2018-01-25T00:55:14.946Z,83.62
2018-01-25T00:56:13.323Z,84.09
2018-01-25T00:57:13.316Z,84
2018-01-25T00:58:13.565Z,84
2018-01-25T00:59:13.310Z,83.81
2018-01-25T01:00:14.495Z,84.09
2018-01-25T01:01:13.563Z,83.9
2018-01-25T01:02:13.292Z,83.62
2018-01-25T01:03:13.544Z,84.09
2018-01-25T01:04:13.567Z,84.28
2018-01-25T01:05:14.945Z,84.09
2018-01-25T01:06:13.531Z,84
2018-01-25T01:07:13.520Z,84.76
2018-01-25T01:08:13.512Z,85.04
2018-01-25T01:09:13.507Z,84.47
2018-01-25T01:10:14.903Z,84.47
2018-01-25T01:11:13.500Z,85.61
2018-01-25T01:12:14.520Z,85.52
2018-01-25T01:13:13.488Z,85.8
2018-01-25T01:14:13.235Z,85.9
2018-01-25T01:15:15.009Z,86.09
2018-01-25T01:16:13.223Z,85.99
2018-01-25T01:17:13.465Z,86.85
2018-01-25T01:18:13.462Z,86.33
2018-01-25T01:19:13.456Z,86.24
2018-01-25T01:20:14.407Z,86.09
2018-01-25T01:21:13.448Z,86.05
2018-01-25T01:22:13.438Z,86.09
2018-01-25T01:23:13.441Z,86.18
2018-01-25T01:24:13.431Z,85.99
2018-01-25T01:25:14.805Z,86.85
2018-01-25T01:26:13.423Z,86.38
2018-01-25T01:27:13.410Z,86.09
2018-01-25T01:28:13.154Z,86.47
2018-01-25T01:29:13.401Z,86.99
2018-01-25T01:30:14.886Z,86.57
2018-01-25T01:31:13.388Z,86.94
2018-01-25T01:32:13.139Z,87.57
2018-01-25T01:33:13.126Z,87.9
2018-01-25T01:34:13.121Z,87.85
2018-01-25T01:35:14.106Z,87.66
2018-01-25T01:36:13.108Z,87.57
2018-01-25T01:37:13.116Z,87.85
2018-01-25T01:38:13.355Z,88.23
2018-01-25T01:39:13.352Z,87.85
2018-01-25T01:40:14.632Z,88.71
2018-01-25T01:41:13.091Z,89.47
2018-01-25T01:42:13.326Z,89.47
2018-01-25T01:43:13.331Z,89.47
2018-01-25T01:44:13.062Z,90.04
2018-01-25T01:45:14.494Z,90.33
2018-01-25T01:46:13.307Z,89.94
2018-01-25T01:47:13.337Z,91.28
2018-01-25T01:48:13.288Z,90.89
2018-01-25T01:49:13.290Z,91.47
2018-01-25T01:50:14.153Z,91.08
2018-01-25T01:51:13.275Z,90.33
2018-01-25T01:52:13.278Z,90.7
2018-01-25T01:53:13.005Z,91.47
2018-01-25T01:54:13.005Z,91.28
2018-01-25T01:55:13.805Z,91.18
2018-01-25T01:56:13.240Z,91.18
2018-01-25T01:57:13.243Z,91.37
2018-01-25T01:58:12.977Z,91.08
2018-01-25T01:59:13.222Z,90.8
2018-01-25T02:00:13.740Z,90.8
2018-01-25T02:01:13.253Z,90.52
2018-01-25T02:02:12.955Z,90.99
2018-01-25T02:03:12.953Z,91.37
2018-01-25T02:04:12.953Z,91.18
2018-01-25T02:05:14.602Z,91.94
2018-01-25T02:06:13.182Z,91.94
2018-01-25T02:07:12.932Z,91.89
2018-01-25T02:08:13.171Z,92.03
2018-01-25T02:09:13.164Z,92.18
2018-01-25T02:10:13.167Z,92.46
2018-01-25T02:11:13.159Z,93.13
2018-01-25T02:12:13.144Z,93.04
2018-01-25T02:13:12.885Z,93.13
2018-01-25T02:14:13.132Z,94.37
2018-01-25T02:15:14.099Z,93.6
2018-01-25T02:16:12.868Z,94.37
2018-01-25T02:17:13.112Z,94.56
2018-01-25T02:18:13.114Z,94.56
2018-01-25T02:19:13.112Z,95.03
2018-01-25T02:20:13.916Z,94.74
2018-01-25T02:21:13.088Z,95.41
2018-01-25T02:22:13.082Z,95.32
2018-01-25T02:23:13.078Z,96.08
2018-01-25T02:24:12.819Z,96.08
2018-01-25T02:25:14.347Z,96.26
2018-01-25T02:26:13.066Z,96.26
2018-01-25T02:27:12.797Z,96.26
2018-01-25T02:28:12.790Z,97.03
2018-01-25T02:29:12.784Z,97.03
2018-01-25T02:30:13.852Z,97.03
2018-01-25T02:31:12.780Z,96.55
2018-01-25T02:32:12.771Z,96.26
2018-01-25T02:33:13.010Z,96.36
2018-01-25T02:34:12.767Z,96.45
2018-01-25T02:35:14.275Z,96.36
2018-01-25T02:36:12.998Z,96.55
2018-01-25T02:37:13.001Z,96.17
2018-01-25T02:38:12.995Z,96.17
2018-01-25T02:39:12.725Z,95.6
2018-01-25T02:40:14.222Z,96.17
2018-01-25T02:41:12.972Z,96.17
2018-01-25T02:42:12.957Z,96.45
2018-01-25T02:43:12.946Z,95.98
2018-01-25T02:44:12.685Z,96.36
2018-01-25T02:45:14.124Z,96.45
2018-01-25T02:46:12.681Z,97.03
2018-01-25T02:47:12.923Z,97.03
2018-01-25T02:48:12.911Z,97.5
2018-01-25T02:49:12.657Z,97.03
2018-01-25T02:50:14.178Z,97.5
2018-01-25T02:51:12.912Z,96.84
2018-01-25T02:52:12.781Z,96.74
2018-01-25T02:53:12.663Z,96.93
2018-01-25T02:54:12.689Z,96.26
2018-01-25T02:55:13.483Z,97.03
2018-01-25T02:56:12.909Z,97.03
2018-01-25T02:57:12.679Z,97.12
2018-01-25T02:58:12.988Z,96.45
2018-01-25T02:59:12.977Z,96.26
2018-01-25T03:00:13.440Z,96.36
2018-01-25T03:01:12.576Z,96.26
2018-01-25T03:02:12.829Z,96.45
2018-01-25T03:03:12.816Z,96.26
2018-01-25T03:04:12.865Z,95.6
2018-01-25T03:05:14.237Z,94.93
2018-01-25T03:06:12.837Z,94.93
2018-01-25T03:07:13.041Z,94.84
2018-01-25T03:08:12.797Z,93.89
2018-01-25T03:09:12.780Z,94.56
2018-01-25T03:10:13.476Z,94.93
2018-01-25T03:11:12.513Z,93.7
2018-01-25T03:12:12.506Z,92.94
2018-01-25T03:13:12.761Z,93.41
2018-01-25T03:14:12.749Z,93.18
2018-01-25T03:15:14.031Z,93.18
2018-01-25T03:16:12.740Z,93.08
2018-01-25T03:17:12.728Z,93.32
2018-01-25T03:18:12.476Z,92.99
2018-01-25T03:19:12.715Z,92.94
2018-01-25T03:20:14.097Z,92.89
2018-01-25T03:21:12.708Z,92.94
2018-01-25T03:22:12.699Z,93.79
2018-01-25T03:23:12.695Z,93.79
2018-01-25T03:24:12.439Z,93.99
2018-01-25T03:25:13.999Z,94.56
2018-01-25T03:26:12.677Z,94.46
2018-01-25T03:27:12.420Z,94.56
2018-01-25T03:28:12.412Z,93.89
2018-01-25T03:29:12.660Z,94.08
2018-01-25T03:30:13.946Z,94.37
2018-01-25T03:31:12.397Z,94.18
2018-01-25T03:32:12.393Z,94.65
2018-01-25T03:33:12.636Z,95.51
2018-01-25T03:34:12.631Z,95.22
2018-01-25T03:35:14.069Z,94.56
2018-01-25T03:36:12.614Z,95.32
2018-01-25T03:37:12.358Z,95.12
2018-01-25T03:38:12.608Z,95.51
2018-01-25T03:39:12.347Z,94.93
2018-01-25T03:40:13.824Z,96.26
2018-01-25T03:41:12.338Z,95.6
2018-01-25T03:42:12.333Z,95.32
2018-01-25T03:43:12.344Z,94.74
2018-01-25T03:44:12.333Z,94.84
2018-01-25T03:45:13.646Z,94.46
2018-01-25T03:46:12.555Z,94.74
2018-01-25T03:47:12.548Z,94.74
2018-01-25T03:48:12.578Z,95.7
2018-01-25T03:49:12.532Z,95.6
2018-01-25T03:50:13.297Z,94.74
2018-01-25T03:51:12.537Z,94.84
2018-01-25T03:52:12.515Z,94.84
2018-01-25T03:53:12.507Z,94.65
2018-01-25T03:54:12.257Z,94.65
2018-01-25T03:55:13.606Z,94.74
2018-01-25T03:56:12.487Z,94.65
2018-01-25T03:57:12.232Z,94.03
2018-01-25T03:58:12.476Z,94.08
2018-01-25T03:59:12.476Z,94.03
2018-01-25T04:00:12.939Z,93.84
2018-01-25T04:01:12.471Z,93.75
2018-01-25T04:02:12.224Z,93.37
2018-01-25T04:03:12.462Z,92.99
2018-01-25T04:04:12.214Z,92.99
2018-01-25T04:05:13.700Z,93.94
2018-01-25T04:06:12.433Z,93.46
2018-01-25T04:07:12.171Z,93.65
2018-01-25T04:08:12.170Z,93.94
2018-01-25T04:09:12.414Z,93.94
2018-01-25T04:10:13.774Z,93.55
2018-01-25T04:11:12.156Z,93.08
2018-01-25T04:12:12.406Z,93.94
2018-01-25T04:13:12.387Z,93.55
2018-01-25T04:14:12.394Z,93.37
2018-01-25T04:15:13.542Z,93.84
2018-01-25T04:16:12.117Z,93.37
2018-01-25T04:17:12.372Z,92.99
2018-01-25T04:18:12.360Z,92.99
2018-01-25T04:19:12.107Z,92.8
2018-01-25T04:20:13.802Z,92.99
2018-01-25T04:21:12.092Z,92.32
2018-01-25T04:22:12.333Z,92.41
2018-01-25T04:23:12.080Z,92.22
2018-01-25T04:24:12.321Z,92.99
2018-01-25T04:25:13.790Z,92.51
2018-01-25T04:26:12.317Z,92.61
2018-01-25T04:27:12.313Z,92.8
2018-01-25T04:28:12.058Z,92.89
2018-01-25T04:29:12.292Z,93.94
2018-01-25T04:30:13.837Z,94.51
2018-01-25T04:31:12.283Z,94.03
2018-01-25T04:32:12.290Z,94.42
2018-01-25T04:33:12.273Z,93.75
2018-01-25T04:34:12.265Z,94.22
2018-01-25T04:35:13.894Z,93.84
2018-01-25T04:36:12.251Z,93.37
2018-01-25T04:37:12.246Z,93.18
2018-01-25T04:38:12.242Z,93.46
2018-01-25T04:39:12.237Z,93.55
2018-01-25T04:40:13.591Z,93.55
2018-01-25T04:41:12.224Z,93.65
2018-01-25T04:42:12.227Z,94.22
2018-01-25T04:43:12.265Z,93.75
2018-01-25T04:44:11.952Z,93.84
2018-01-25T04:45:13.130Z,94.13
2018-01-25T04:46:12.192Z,94.22
2018-01-25T04:47:12.184Z,94.51
2018-01-25T04:48:11.930Z,94.03
2018-01-25T04:49:12.178Z,94.42
2018-01-25T04:50:12.521Z,94.03
2018-01-25T04:51:11.911Z,94.03
2018-01-25T04:52:12.169Z,93.84
2018-01-25T04:53:12.153Z,93.84
2018-01-25T04:54:11.894Z,93.65
2018-01-25T04:55:13.211Z,94.13
2018-01-25T04:56:12.148Z,94.32
2018-01-25T04:57:12.133Z,93.75
2018-01-25T04:58:12.125Z,94.42
2018-01-25T04:59:11.866Z,94.6
2018-01-25T05:00:12.714Z,94.13
2018-01-25T05:01:11.855Z,93.94
2018-01-25T05:02:11.851Z,93.55
2018-01-25T05:03:12.097Z,92.99
2018-01-25T05:04:11.839Z,92.03
2018-01-25T05:05:13.295Z,91.94
2018-01-25T05:06:12.082Z,91.03
2018-01-25T05:07:12.086Z,91.13
2018-01-25T05:08:11.813Z,90.47
2018-01-25T05:09:12.064Z,90.18
2018-01-25T05:10:13.534Z,89.8
2018-01-25T05:11:12.050Z,89.51
2018-01-25T05:12:12.046Z,88.94
2018-01-25T05:13:11.788Z,88.94
2018-01-25T05:14:12.039Z,88.75
2018-01-25T05:15:13.131Z,87.99
2018-01-25T05:16:12.030Z,87.56
2018-01-25T05:17:12.018Z,87.56
2018-01-25T05:18:11.756Z,87.08
2018-01-25T05:19:12.009Z,86.99
2018-01-25T05:20:12.945Z,87.37
2018-01-25T05:21:11.992Z,86.8
2018-01-25T05:22:11.998Z,85.94
2018-01-25T05:23:11.981Z,85.66
2018-01-25T05:24:11.972Z,85.37
2018-01-25T05:25:13.173Z,84.99
2018-01-25T05:26:11.970Z,84.75
2018-01-25T05:27:11.966Z,84.08
2018-01-25T05:28:11.704Z,84.27
2018-01-25T05:29:11.956Z,84.17
2018-01-25T05:30:12.842Z,83.7
2018-01-25T05:31:11.939Z,83.22
2018-01-25T05:32:11.689Z,82.93
2018-01-25T05:33:11.929Z,82.75
2018-01-25T05:34:11.682Z,83.03
2018-01-25T05:35:12.594Z,82.18
2018-01-25T05:36:11.663Z,81.89
2018-01-25T05:37:11.908Z,82.18
2018-01-25T05:38:11.908Z,82.37
2018-01-25T05:39:11.904Z,82.08
2018-01-25T05:40:13.206Z,82.31
2018-01-25T05:41:11.888Z,82.08
2018-01-25T05:42:11.885Z,81.32
2018-01-25T05:43:11.884Z,81.32
2018-01-25T05:44:11.637Z,81.74
2018-01-25T05:45:13.293Z,82.03
2018-01-25T05:46:11.866Z,81.98
2018-01-25T05:47:11.610Z,82.27
2018-01-25T05:48:11.608Z,82.18
2018-01-25T05:49:11.869Z,82.75
2018-01-25T05:50:12.729Z,82.46
2018-01-25T05:51:11.592Z,83.32
2018-01-25T05:52:11.842Z,83.51
2018-01-25T05:53:11.591Z,83.98
2018-01-25T05:54:11.832Z,84.36
2018-01-25T05:55:12.721Z,84.27
2018-01-25T05:56:11.576Z,85.03
2018-01-25T05:57:11.819Z,85.32
2018-01-25T05:58:11.868Z,85.94
2018-01-25T05:59:11.560Z,85.28
2018-01-25T06:00:13.197Z,85.85
2018-01-25T06:01:11.799Z,85.47
2018-01-25T06:02:11.802Z,85.66
2018-01-25T06:03:11.794Z,86.04
2018-01-25T06:04:11.791Z,85.94
2018-01-25T06:05:12.634Z,86.61
2018-01-25T06:06:11.774Z,86.8
2018-01-25T06:07:11.517Z,86.61
2018-01-25T06:08:12.818Z,87.08
2018-01-25T06:09:11.760Z,86.99
2018-01-25T06:10:12.622Z,86.9
2018-01-25T06:11:11.498Z,87.37
2018-01-25T06:12:11.765Z,87.85
2018-01-25T06:13:11.750Z,87.85
2018-01-25T06:14:11.485Z,88.32
2018-01-25T06:15:12.913Z,88.32
2018-01-25T06:16:11.731Z,88.51
2018-01-25T06:17:11.486Z,88.6
2018-01-25T06:18:11.741Z,88.28
2018-01-25T06:19:11.458Z,88.94
2018-01-25T06:20:12.493Z,88.37
2018-01-25T06:21:11.449Z,89.14
2018-01-25T06:22:11.446Z,89.7
2018-01-25T06:23:11.691Z,89.61
2018-01-25T06:24:11.686Z,90.28
2018-01-25T06:25:13.207Z,90.37
2018-01-25T06:26:11.678Z,90.28
2018-01-25T06:27:11.421Z,90.08
2018-01-25T06:28:11.417Z,90.08
2018-01-25T06:29:11.666Z,90.47
2018-01-25T06:30:13.122Z,90.56
2018-01-25T06:31:11.659Z,90.18
2018-01-25T06:32:11.660Z,89.89
2018-01-25T06:33:11.390Z,90.08
2018-01-25T06:34:11.408Z,90.08
2018-01-25T06:35:13.045Z,90.18
2018-01-25T06:36:11.633Z,90.18
2018-01-25T06:37:11.370Z,90.56
2018-01-25T06:38:11.618Z,90.18
2018-01-25T06:39:11.361Z,90.47
2018-01-25T06:40:12.121Z,90.47
2018-01-25T06:41:11.603Z,90.18
2018-01-25T06:42:11.596Z,90.56
2018-01-25T06:43:11.341Z,90.37
2018-01-25T06:44:11.589Z,90.47
2018-01-25T06:45:12.371Z,90.75
2018-01-25T06:46:11.582Z,90.75
2018-01-25T06:47:11.571Z,90.18
2018-01-25T06:48:11.570Z,90.28
2018-01-25T06:49:11.308Z,90.47
2018-01-25T06:50:12.542Z,90.28
2018-01-25T06:51:11.559Z,90.23
2018-01-25T06:52:11.291Z,90.84
2018-01-25T06:53:11.542Z,90.14
2018-01-25T06:54:11.532Z,90.33
2018-01-25T06:55:12.245Z,90.37
2018-01-25T06:56:11.274Z,90.28
2018-01-25T06:57:11.518Z,90.37
2018-01-25T06:58:11.516Z,90.28
2018-01-25T06:59:11.515Z,89.99
2018-01-25T07:00:12.319Z,90.37
2018-01-25T07:01:11.510Z,89.99
2018-01-25T07:02:11.489Z,89.99
2018-01-25T07:03:11.486Z,90.28
2018-01-25T07:04:11.225Z,89.99
2018-01-25T07:05:12.728Z,90.66
2018-01-25T07:06:11.468Z,89.8
2018-01-25T07:07:11.210Z,90.47
2018-01-25T07:08:11.461Z,90.47
2018-01-25T07:09:11.459Z,90.56
2018-01-25T07:10:12.770Z,90.47
2018-01-25T07:11:11.445Z,90.33
2018-01-25T07:12:11.460Z,90.33
2018-01-25T07:13:11.439Z,90.66
2018-01-25T07:14:11.173Z,90.23
2018-01-25T07:15:12.531Z,90.52
2018-01-25T07:16:11.413Z,90.18
2018-01-25T07:17:11.162Z,89.94
2018-01-25T07:18:11.401Z,90.14
2018-01-25T07:19:11.404Z,89.8
2018-01-25T07:20:12.605Z,89.99
2018-01-25T07:21:11.384Z,90.14
2018-01-25T07:22:11.379Z,90.14
2018-01-25T07:23:11.122Z,90.18
2018-01-25T07:24:11.371Z,90.14
2018-01-25T07:25:12.019Z,90.33
2018-01-25T07:26:11.106Z,90.52
2018-01-25T07:27:11.354Z,90.14
2018-01-25T07:28:11.344Z,90.52
2018-01-25T07:29:11.090Z,90.75
2018-01-25T07:30:12.637Z,90.28
2018-01-25T07:31:11.333Z,90.18
2018-01-25T07:32:11.071Z,90.18
2018-01-25T07:33:11.321Z,90.08
2018-01-25T07:34:11.060Z,89.99
2018-01-25T07:35:12.029Z,90.47
2018-01-25T07:36:11.301Z,90.18
2018-01-25T07:37:11.047Z,90.47
2018-01-25T07:38:11.295Z,90.18
2018-01-25T07:39:11.285Z,89.99
2018-01-25T07:40:12.557Z,90.08
2018-01-25T07:41:11.280Z,90.47
2018-01-25T07:42:11.307Z,90.18
2018-01-25T07:43:11.267Z,90.37
2018-01-25T07:44:11.262Z,90.18
2018-01-25T07:45:11.966Z,90.18
2018-01-25T07:46:11.245Z,90.18
2018-01-25T07:47:11.244Z,89.99
2018-01-25T07:48:11.252Z,90.08
2018-01-25T07:49:10.978Z,90.18
2018-01-25T07:50:11.753Z,90.47
2018-01-25T07:51:11.220Z,90.47
2018-01-25T07:52:11.218Z,90.18
2018-01-25T07:53:11.208Z,90.28
2018-01-25T07:54:11.206Z,90.08
2018-01-25T07:55:12.269Z,90.18
2018-01-25T07:56:10.946Z,89.8
2018-01-25T07:57:11.190Z,89.89
2018-01-25T07:58:11.188Z,89.51
2018-01-25T07:59:11.183Z,89.61
2018-01-25T08:00:12.467Z,89.51
2018-01-25T08:01:11.171Z,89.7
2018-01-25T08:02:11.166Z,89.61
2018-01-25T08:03:10.909Z,89.7
2018-01-25T08:04:10.904Z,90.18
2018-01-25T08:05:12.412Z,90.28
2018-01-25T08:06:11.145Z,90.18
2018-01-25T08:07:10.889Z,90.18
2018-01-25T08:08:11.136Z,90.18
2018-01-25T08:09:11.135Z,90.18
2018-01-25T08:10:11.843Z,90.56
2018-01-25T08:11:10.869Z,90.18
2018-01-25T08:12:11.116Z,90.84
2018-01-25T08:13:10.870Z,90.28
2018-01-25T08:14:11.105Z,90.75
2018-01-25T08:15:11.686Z,90.37
2018-01-25T08:16:11.096Z,90.18
2018-01-25T08:17:11.179Z,89.7
2018-01-25T08:18:10.834Z,89.8
2018-01-25T08:19:11.087Z,89.8
2018-01-25T08:20:11.077Z,89.14
2018-01-25T08:21:11.072Z,89.14
2018-01-25T08:22:11.069Z,89.51
2018-01-25T08:23:11.063Z,89.27
2018-01-25T08:24:11.059Z,89.18
2018-01-25T08:25:11.685Z,88.7
2018-01-25T08:26:10.801Z,88.6
2018-01-25T08:27:11.046Z,88.32
2018-01-25T08:28:10.791Z,88.23
2018-01-25T08:29:11.034Z,87.94
2018-01-25T08:30:12.263Z,87.56
2018-01-25T08:31:10.781Z,87.75
2018-01-25T08:32:11.022Z,88.13
2018-01-25T08:33:10.765Z,87.46
2018-01-25T08:34:10.761Z,87.94
2018-01-25T08:35:12.058Z,87.27
2018-01-25T08:36:11.003Z,86.7
2018-01-25T08:37:10.753Z,86.9
2018-01-25T08:38:10.999Z,86.9
2018-01-25T08:39:11.023Z,86.9
2018-01-25T08:40:11.344Z,86.99
2018-01-25T08:41:10.737Z,86.9
2018-01-25T08:42:10.978Z,86.99
2018-01-25T08:43:10.972Z,86.9
2018-01-25T08:44:10.719Z,86.51
2018-01-25T08:45:11.676Z,87.18
2018-01-25T08:46:10.710Z,86.51
2018-01-25T08:47:10.750Z,86.9
2018-01-25T08:48:10.953Z,87.27
2018-01-25T08:49:11.000Z,86.61
2018-01-25T08:50:12.058Z,86.99
2018-01-25T08:51:10.940Z,86.08
2018-01-25T08:52:10.692Z,85.89
2018-01-25T08:53:10.932Z,85.7
2018-01-25T08:54:10.939Z,85.41
2018-01-25T08:55:11.912Z,85.37
2018-01-25T08:56:10.926Z,85.41
2018-01-25T08:57:10.919Z,85.22
2018-01-25T08:58:10.660Z,85.8
2018-01-25T08:59:10.978Z,85.99
2018-01-25T09:00:12.029Z,85.41
2018-01-25T09:01:10.654Z,84.46
2018-01-25T09:02:10.917Z,84.84
2018-01-25T09:03:10.641Z,84.56
2018-01-25T09:04:10.911Z,85.41
2018-01-25T09:05:11.918Z,84.84
2018-01-25T09:06:10.885Z,85.51
2018-01-25T09:07:10.876Z,85.32
2018-01-25T09:08:10.623Z,84.65
2018-01-25T09:09:11.841Z,84.84
2018-01-25T09:10:11.834Z,85.22
2018-01-25T09:11:10.612Z,84.75
2018-01-25T09:12:10.605Z,84.84
2018-01-25T09:13:10.854Z,85.51
2018-01-25T09:14:10.853Z,84.94
2018-01-25T09:15:11.787Z,84.84
2018-01-25T09:16:10.595Z,84.65
2018-01-25T09:17:10.585Z,84.94
2018-01-25T09:18:10.586Z,83.98
2018-01-25T09:19:10.602Z,83.8
2018-01-25T09:20:11.657Z,84.46
2018-01-25T09:21:10.567Z,84.65
2018-01-25T09:22:10.818Z,84.46
2018-01-25T09:23:10.814Z,83.89
2018-01-25T09:24:10.809Z,83.89
2018-01-25T09:25:11.336Z,83.98
2018-01-25T09:26:10.802Z,83.8
2018-01-25T09:27:10.803Z,83.41
2018-01-25T09:28:10.793Z,83.7
2018-01-25T09:29:10.790Z,83.22
2018-01-25T09:30:11.692Z,83.61
2018-01-25T09:31:10.790Z,83.51
2018-01-25T09:32:10.790Z,83.32
2018-01-25T09:33:10.527Z,83.41
2018-01-25T09:34:10.774Z,83.32
2018-01-25T09:35:11.427Z,83.32
2018-01-25T09:36:10.512Z,83.89
2018-01-25T09:37:10.758Z,83.51
2018-01-25T09:38:10.502Z,83.13
2018-01-25T09:39:11.550Z,83.41
2018-01-25T09:40:11.155Z,82.56
2018-01-25T09:41:10.501Z,82.46
2018-01-25T09:42:10.488Z,82.93
2018-01-25T09:43:10.744Z,82.56
2018-01-25T09:44:10.481Z,82.75
2018-01-25T09:45:11.320Z,82.65
2018-01-25T09:46:10.724Z,82.93
2018-01-25T09:47:10.725Z,82.65
2018-01-25T09:48:10.724Z,82.65
2018-01-25T09:49:10.723Z,81.84
2018-01-25T09:50:11.278Z,82.31
2018-01-25T09:51:10.455Z,82.03
2018-01-25T09:52:10.699Z,82.31
2018-01-25T09:53:10.447Z,82.31
2018-01-25T09:54:10.449Z,81.84
2018-01-25T09:55:11.129Z,81.36
2018-01-25T09:56:10.699Z,80.79
2018-01-25T09:57:10.435Z,80.98
2018-01-25T09:58:10.685Z,81.17
2018-01-25T09:59:10.434Z,80.98
2018-01-25T10:00:11.772Z,80.79
2018-01-25T10:01:10.683Z,80.16
2018-01-25T10:02:10.687Z,79.78
2018-01-25T10:03:10.673Z,79.88
2018-01-25T10:04:10.661Z,79.21
2018-01-25T10:05:11.237Z,78.92
2018-01-25T10:06:10.657Z,78.64
2018-01-25T10:07:10.400Z,78.54
2018-01-25T10:08:10.650Z,78.83
2018-01-25T10:09:10.393Z,78.35
2018-01-25T10:10:11.540Z,77.97
2018-01-25T10:11:10.642Z,78.16
2018-01-25T10:12:10.647Z,77.97
2018-01-25T10:13:10.647Z,78.35
2018-01-25T10:14:10.648Z,77.97
2018-01-25T10:15:11.024Z,77.59
2018-01-25T10:16:10.625Z,77.49
2018-01-25T10:17:10.372Z,78.25
2018-01-25T10:18:10.626Z,77.97
2018-01-25T10:19:10.627Z,78.83
2018-01-25T10:20:11.381Z,78.35
2018-01-25T10:21:10.665Z,78.16
2018-01-25T10:22:10.617Z,78.25
2018-01-25T10:53:10.461Z,75.81
2018-01-25T10:54:10.196Z,75.53
2018-01-25T10:55:11.233Z,75.05
2018-01-25T10:56:10.449Z,75.34
2018-01-25T10:57:10.431Z,75.15
2018-01-25T10:58:10.164Z,75.05
2018-01-25T10:59:10.165Z,75.15
2018-01-25T11:00:10.288Z,74.48
2018-01-25T11:01:10.416Z,74.48
2018-01-25T11:02:10.396Z,74.38
2018-01-25T11:03:10.442Z,74.52
2018-01-25T11:04:10.382Z,74.01
2018-01-25T11:05:11.107Z,73.75
2018-01-25T11:06:10.387Z,73.56
2018-01-25T11:07:10.381Z,73.56
2018-01-25T11:08:10.116Z,73.28
2018-01-25T11:09:10.369Z,73.37
2018-01-25T11:10:11.204Z,73.08
2018-01-25T11:11:10.108Z,72.51
2018-01-25T11:12:10.365Z,72.51
2018-01-25T11:13:10.106Z,72.71
2018-01-25T11:14:10.368Z,72.71
2018-01-25T11:15:11.212Z,72.8
2018-01-25T11:16:10.103Z,72.61
2018-01-25T11:17:10.367Z,72.51
2018-01-25T11:18:10.365Z,72.13
2018-01-25T11:19:10.343Z,72.89
2018-01-25T11:20:11.174Z,72.71
2018-01-25T11:21:10.344Z,72.71
2018-01-25T11:22:10.347Z,73.08
2018-01-25T11:23:10.076Z,72.51
2018-01-25T11:24:10.340Z,73.28
2018-01-25T11:25:10.997Z,72.23
2018-01-25T11:26:10.334Z,72.42
2018-01-25T11:27:10.073Z,72.03
2018-01-25T11:28:10.320Z,71.84
2018-01-25T11:29:10.066Z,72.51
2018-01-25T11:30:10.850Z,72.23
2018-01-25T11:31:10.320Z,72.23
2018-01-25T11:32:10.313Z,71.56
2018-01-25T11:33:10.319Z,71.94
2018-01-25T11:34:10.323Z,71.46
2018-01-25T11:35:10.979Z,72.26
2018-01-25T11:36:10.089Z,71.37
2018-01-25T11:37:10.375Z,72.23
2018-01-25T11:38:10.058Z,71.5
2018-01-25T11:39:10.304Z,71.5
2018-01-25T11:40:10.842Z,71.46
2018-01-25T11:41:10.056Z,71.59
2018-01-25T11:42:10.296Z,71.41
2018-01-25T11:43:10.293Z,71.69
2018-01-25T11:44:10.343Z,72.26
2018-01-25T11:45:10.719Z,72.23
2018-01-25T11:46:10.292Z,72.07
2018-01-25T11:47:10.045Z,71.98
2018-01-25T11:48:10.283Z,71.69
2018-01-25T11:49:10.030Z,71.78
2018-01-25T11:50:11.066Z,71.88
2018-01-25T11:51:10.280Z,72.07
2018-01-25T11:52:10.275Z,71.94
2018-01-25T11:53:10.027Z,71.98
2018-01-25T11:54:10.275Z,71.5
2018-01-25T11:55:10.633Z,71.94
2018-01-25T11:56:10.018Z,71.94
2018-01-25T11:57:10.019Z,72.51
2018-01-25T11:58:10.265Z,72.32
2018-01-25T11:59:10.016Z,72.51
2018-01-25T12:00:10.734Z,72.32
2018-01-25T12:01:10.016Z,72.07
2018-01-25T12:02:10.041Z,71.69
2018-01-25T12:03:10.265Z,71.27
2018-01-25T12:04:10.268Z,71.41
2018-01-25T12:05:10.841Z,71.46
2018-01-25T12:06:10.267Z,70.92
2018-01-25T12:07:10.004Z,71.02
2018-01-25T12:08:10.333Z,70.92
2018-01-25T12:09:10.274Z,71.02
2018-01-25T12:10:11.170Z,70.73
2018-01-25T12:11:10.263Z,71.02
2018-01-25T12:12:10.245Z,70.73
2018-01-25T12:13:10.807Z,70.73
2018-01-25T12:15:11.137Z,70.73
2018-01-25T12:16:10.241Z,70.54
2018-01-25T12:17:10.245Z,70.54
2018-01-25T12:18:11.591Z,70.45
2018-01-25T12:19:10.236Z,70.26
2018-01-25T12:20:11.031Z,69.97
2018-01-25T12:21:09.982Z,69.53
2018-01-25T12:22:10.236Z,69.34
2018-01-25T12:23:10.229Z,69.02
2018-01-25T12:24:09.980Z,68.48
2018-01-25T12:25:10.979Z,68.76
2018-01-25T12:26:10.233Z,68.29
2018-01-25T12:27:10.228Z,68.1
2018-01-25T12:28:10.230Z,67.81
2018-01-25T12:29:09.974Z,67.71
2018-01-25T12:30:11.028Z,67.71
2018-01-25T12:31:09.992Z,67.71
2018-01-25T12:32:10.236Z,67.52
2018-01-25T12:33:10.231Z,67.14
2018-01-25T12:34:09.991Z,66.66
2018-01-25T12:35:10.944Z,66.28
2018-01-25T12:36:09.967Z,66.76
2018-01-25T12:37:10.220Z,66.31
2018-01-25T12:38:10.217Z,66.56
2018-01-25T12:39:10.216Z,66.13
2018-01-25T12:40:10.454Z,65.93
2018-01-25T12:41:10.218Z,65.9
2018-01-25T12:42:09.959Z,66.09
2018-01-25T12:43:10.218Z,65.8
2018-01-25T12:44:09.957Z,66.41
2018-01-25T12:45:11.083Z,66.38
2018-01-25T12:46:09.954Z,65.45
2018-01-25T12:47:10.011Z,65.36
2018-01-25T12:48:10.206Z,65.17
2018-01-25T12:49:10.211Z,65.17
2018-01-25T12:50:11.158Z,65.45
2018-01-25T12:51:09.955Z,65.07
2018-01-25T12:52:10.202Z,65.36
2018-01-25T12:53:10.200Z,65.36
2018-01-25T12:54:09.949Z,65.64
2018-01-25T12:55:11.000Z,65.23
2018-01-25T12:56:10.198Z,65.45
2018-01-25T12:57:10.194Z,65.61
2018-01-25T12:58:09.945Z,65.84
2018-01-25T12:59:10.201Z,65.61
2018-01-25T13:00:10.704Z,65.61
2018-01-25T13:01:09.939Z,65.71
2018-01-25T13:02:10.253Z,65.61
2018-01-25T13:03:10.191Z,65.8
2018-01-25T13:04:10.187Z,65.93
2018-01-25T13:05:10.369Z,66.47
2018-01-25T13:06:10.186Z,66.6
2018-01-25T13:07:10.186Z,66.41
2018-01-25T13:08:10.187Z,65.74
2018-01-25T13:09:10.186Z,65.84
2018-01-25T13:10:10.610Z,65.93
2018-01-25T13:11:09.940Z,66.03
2018-01-25T13:12:10.191Z,66.5
2018-01-25T13:13:10.182Z,66.22
2018-01-25T13:14:09.928Z,66.09
2018-01-25T13:15:10.662Z,66.5
2018-01-25T13:16:09.933Z,66.79
2018-01-25T13:17:09.930Z,66.76
2018-01-25T13:18:09.930Z,66.56
2018-01-25T13:19:10.226Z,66.38
2018-01-25T13:20:10.861Z,66.76
2018-01-25T13:21:10.177Z,66.6
2018-01-25T13:22:10.178Z,66.76
2018-01-25T13:23:10.173Z,66.79
2018-01-25T13:24:09.922Z,66.31
2018-01-25T13:25:10.793Z,66.31
2018-01-25T13:26:09.916Z,66.09
2018-01-25T13:27:10.212Z,65.84
2018-01-25T13:28:10.265Z,65.93
2018-01-25T13:29:10.174Z,65.71
2018-01-25T13:30:10.769Z,66.41
2018-01-25T13:31:10.168Z,66.31